Time;durP1;ratioP1;P1;durP2;ratioP2;P2;SDS_P1;SDS_P2;PMS_P1;PMS_P2;Temp;Humidity;BMP_temperature;BMP_pressure;BME280_temperature;BME280_humidity;BME280_pressure;Samples;Min_cycle;Max_cycle;Signal;HPM_P1;HPM_P2
2022/04/02 00:01:18;;;;;;;1.70;1.30;;;;;;;15.60;55.78;92938.63;5115587;28;20197;-87
2022/04/02 00:03:47;;;;;;;2.50;1.50;;;;;;;15.61;55.72;92929.91;5080178;28;20706;-80
2022/04/02 00:06:14;;;;;;;4.57;1.40;;;;;;;15.62;55.26;92941.00;5080673;28;20248;-78
2022/04/02 00:08:40;;;;;;;1.60;1.47;;;;;;;15.42;55.05;92897.38;5094067;28;20236;-89
2022/04/02 00:11:07;;;;;;;1.53;1.10;;;;;;;15.55;54.58;92934.13;5094271;28;20193;-87
2022/04/02 00:13:35;;;;;;;1.40;1.30;;;;;;;15.60;54.21;92925.75;5111936;28;20193;-78
2022/04/02 00:16:02;;;;;;;2.63;1.20;;;;;;;15.60;53.80;92941.22;5120229;28;20193;-86
2022/04/02 00:18:29;;;;;;;1.20;1.10;;;;;;;15.59;53.49;92938.81;5113777;28;20211;-84
2022/04/02 00:20:58;;;;;;;2.20;1.27;;;;;;;15.60;53.21;92943.00;5110089;28;20729;-84
2022/04/02 00:23:39;;;;;;;1.10;1.00;;;;;;;15.59;52.99;92938.81;5114356;28;20204;-87
2022/04/02 00:26:07;;;;;;;1.10;1.10;;;;;;;15.49;52.56;92939.31;5113866;28;20249;-84
2022/04/02 00:28:35;;;;;;;1.17;1.03;;;;;;;15.54;52.32;92949.78;5113991;28;20193;-85
2022/04/02 00:31:02;;;;;;;1.63;1.17;;;;;;;15.42;52.49;92928.28;5113502;28;20193;-83
2022/04/02 00:33:31;;;;;;;2.07;1.10;;;;;;;15.48;52.20;92946.25;5097496;28;20248;-83
2022/04/02 00:35:59;;;;;;;1.07;1.00;;;;;;;15.50;52.01;92961.50;5093607;28;20190;-88
2022/04/02 00:38:26;;;;;;;1.87;1.10;;;;;;;15.49;52.08;92980.53;5093650;28;20186;-89
2022/04/02 00:40:53;;;;;;;1.00;1.00;;;;;;;15.48;51.89;92956.56;5093643;28;20687;-80
2022/04/02 00:43:24;;;;;;;1.33;1.17;;;;;;;15.47;51.69;92960.13;5093029;28;20193;-84
2022/04/02 00:45:51;;;;;;;1.07;1.07;;;;;;;15.47;51.90;92957.56;5093127;28;20190;-85
2022/04/02 00:48:19;;;;;;;2.03;1.20;;;;;;;15.42;51.91;92960.00;5096194;28;20186;-89
2022/04/02 00:50:47;;;;;;;2.00;1.10;;;;;;;15.44;51.52;92959.75;5094887;28;20705;-78
2022/04/02 00:53:16;;;;;;;0.90;0.90;;;;;;;15.43;51.73;92961.56;5113182;28;20701;-86
2022/04/02 00:55:44;;;;;;;1.23;1.10;;;;;;;15.43;51.80;92958.97;5114334;28;20182;-85
2022/04/02 00:58:11;;;;;;;1.70;1.00;;;;;;;15.23;52.13;92917.91;5116311;28;20200;-78
2022/04/02 01:00:39;;;;;;;1.27;1.20;;;;;;;15.42;52.22;92959.19;5117439;28;20552;-84
2022/04/02 01:03:06;;;;;;;1.40;1.30;;;;;;;15.42;52.02;92946.31;5112714;28;20728;-86
2022/04/02 01:05:34;;;;;;;1.40;1.23;;;;;;;15.40;51.96;92956.03;5113883;28;20208;-84
2022/04/02 01:08:04;;;;;;;1.33;1.20;;;;;;;15.24;51.83;92934.16;5112514;28;20224;-82
2022/04/02 01:10:32;;;;;;;1.53;1.43;;;;;;;15.44;51.64;92960.56;5108197;28;20224;-90
2022/04/02 01:13:00;;;;;;;4.83;3.70;;;;;;;15.43;51.62;92971.84;5092593;28;20208;-92
2022/04/02 01:15:26;;;;;;;13.03;8.33;;;;;;;15.45;51.76;92976.78;5092750;28;20220;-84
2022/04/02 01:17:53;;;;;;;12.10;9.50;;;;;;;15.45;51.66;92977.56;5094016;28;20200;-85
2022/04/02 01:20:20;;;;;;;11.40;8.50;;;;;;;15.44;51.41;92976.00;5102325;28;20212;-86
2022/04/02 01:22:49;;;;;;;10.07;6.47;;;;;;;15.43;51.45;92979.59;5093183;28;20292;-90
2022/04/02 01:25:16;;;;;;;7.73;5.70;;;;;;;15.43;51.59;92984.75;5092097;28;20200;-81
2022/04/02 01:27:43;;;;;;;6.80;5.30;;;;;;;15.34;51.76;92986.00;5091601;28;20242;-81
2022/04/02 01:30:13;;;;;;;6.10;5.23;;;;;;;15.32;51.74;92975.88;5092630;28;20213;-81
2022/04/02 01:32:44;;;;;;;7.30;3.93;;;;;;;15.38;51.62;92984.59;5102047;28;20196;-80
2022/04/02 01:35:14;;;;;;;5.47;3.30;;;;;;;15.28;51.68;92991.97;5110960;28;20181;-86
2022/04/02 01:37:41;;;;;;;3.97;2.90;;;;;;;15.20;51.79;92995.59;5112986;28;20188;-90
2022/04/02 01:40:10;;;;;;;4.30;3.17;;;;;;;15.34;51.69;93032.34;5113296;28;20659;-89
2022/04/02 01:42:37;;;;;;;3.30;2.53;;;;;;;15.33;51.95;93023.06;5112766;28;20192;-86
2022/04/02 01:45:05;;;;;;;2.87;2.20;;;;;;;15.36;51.55;93019.25;5114537;28;20188;-78
2022/04/02 01:47:31;;;;;;;2.60;1.97;;;;;;;15.32;51.34;93024.03;5116586;28;20646;-85
2022/04/02 01:49:58;;;;;;;1.60;1.50;;;;;;;15.28;51.52;93017.72;5113145;28;20213;-82
2022/04/02 01:52:26;;;;;;;1.60;1.50;;;;;;;14.94;51.60;92968.22;5106582;28;20346;-82
2022/04/02 01:54:53;;;;;;;1.50;1.40;;;;;;;15.25;51.67;93023.31;5125016;28;20570;-81
2022/04/02 01:57:21;;;;;;;1.30;1.30;;;;;;;15.25;51.61;93024.09;5124324;28;20192;-84
2022/04/02 01:59:49;;;;;;;2.13;1.43;;;;;;;15.24;51.69;93029.44;5121771;28;20196;-85
2022/04/02 02:02:17;;;;;;;1.80;1.60;;;;;;;15.20;51.85;93034.22;5113266;28;20272;-83
2022/04/02 02:04:44;;;;;;;1.17;1.17;;;;;;;15.18;51.56;93012.25;5103241;28;20581;-86
2022/04/02 02:07:12;;;;;;;2.23;1.30;;;;;;;15.17;51.52;92998.56;5092978;28;20190;-88
2022/04/02 02:09:38;;;;;;;1.97;1.70;;;;;;;15.14;51.73;93008.50;5091525;28;20252;-85
2022/04/02 02:12:06;;;;;;;2.17;1.10;;;;;;;15.06;51.55;93006.94;5091810;28;20208;-85
2022/04/02 02:14:34;;;;;;;1.43;1.30;;;;;;;15.09;51.77;93001.41;5093221;28;20948;-87
2022/04/02 02:17:01;;;;;;;1.60;1.50;;;;;;;14.99;51.92;92996.69;5091965;28;20280;-86
2022/04/02 02:19:28;;;;;;;1.40;1.30;;;;;;;15.05;51.81;93000.22;5091750;28;20673;-81
2022/04/02 02:21:56;;;;;;;1.37;1.27;;;;;;;15.02;51.84;92978.25;5092435;28;20178;-80
2022/04/02 02:24:24;;;;;;;1.33;1.23;;;;;;;14.99;51.81;92980.47;5098694;28;20190;-81
2022/04/02 02:26:51;;;;;;;2.40;1.30;;;;;;;14.96;51.72;92957.72;5092127;28;20182;-85
2022/04/02 02:29:18;;;;;;;1.50;1.13;;;;;;;14.98;51.69;92968.56;5091486;28;20228;-90
2022/04/02 02:31:46;;;;;;;3.33;1.47;;;;;;;14.94;51.60;92962.25;5092426;28;20271;-92
2022/04/02 02:36:57;;;;;;;1.10;1.10;;;;;;;14.94;51.25;92981.09;5110772;28;20192;-91
2022/04/02 02:39:24;;;;;;;1.20;1.20;;;;;;;14.95;51.28;92953.56;5113393;28;20216;-86
2022/04/02 02:41:51;;;;;;;1.00;1.00;;;;;;;14.93;51.13;92953.75;5114409;28;20601;-83
2022/04/02 02:44:17;;;;;;;1.30;1.20;;;;;;;14.84;51.30;92936.19;5115515;28;20204;-80
2022/04/02 02:46:46;;;;;;;1.13;1.03;;;;;;;14.94;50.89;92960.50;5121977;28;20269;-84
2022/04/02 02:49:13;;;;;;;1.10;1.10;;;;;;;14.91;50.88;92947.25;5109213;28;20635;-85
2022/04/02 02:51:40;;;;;;;1.90;1.07;;;;;;;14.89;50.93;92936.34;5095846;28;20217;-87
2022/04/02 02:54:07;;;;;;;1.30;1.20;;;;;;;14.92;50.69;92921.28;5090721;28;20228;-89
2022/04/02 02:56:34;;;;;;;1.03;1.03;;;;;;;14.90;50.58;92925.88;5091890;28;20192;-82
2022/04/02 02:59:01;;;;;;;1.00;1.00;;;;;;;14.86;50.59;92922.13;5090782;28;20194;-79
2022/04/02 03:01:28;;;;;;;1.20;1.10;;;;;;;14.84;50.67;92910.47;5091955;28;20186;-82
2022/04/02 03:03:57;;;;;;;1.63;1.00;;;;;;;14.89;50.71;92918.34;5094012;28;20194;-87
2022/04/02 03:06:23;;;;;;;1.03;1.03;;;;;;;14.85;50.44;92930.03;5092429;28;20221;-87
2022/04/02 03:08:50;;;;;;;1.00;1.00;;;;;;;14.84;50.42;92928.47;5091548;28;20185;-84
2022/04/02 03:11:17;;;;;;;1.10;1.10;;;;;;;14.80;50.31;92951.25;5091861;28;20210;-89
2022/04/02 03:13:45;;;;;;;1.10;1.10;;;;;;;14.83;50.34;92932.06;5092116;28;20657;-87
2022/04/02 03:16:11;;;;;;;1.17;1.07;;;;;;;14.87;50.35;92951.22;5091463;28;20194;-77
2022/04/02 03:18:38;;;;;;;1.10;1.10;;;;;;;14.83;50.29;92955.22;5091493;28;20186;-89
2022/04/02 03:21:06;;;;;;;1.30;1.20;;;;;;;14.84;50.19;92967.84;5094433;28;20198;-84
2022/04/02 03:23:33;;;;;;;1.00;1.00;;;;;;;14.84;50.09;92961.94;5098481;28;20190;-81
2022/04/02 03:26:00;;;;;;;1.10;1.10;;;;;;;14.75;50.01;92975.03;5100236;28;20201;-81
2022/04/02 03:28:27;;;;;;;1.40;1.20;;;;;;;14.84;50.11;92983.31;5102309;28;20189;-78
2022/04/02 03:30:55;;;;;;;1.00;1.00;;;;;;;14.83;50.18;92993.81;5095370;28;20699;-84
2022/04/02 03:33:22;;;;;;;1.17;1.00;;;;;;;14.84;50.12;92977.38;5094843;28;20190;-80
2022/04/02 03:35:49;;;;;;;1.00;1.00;;;;;;;14.82;50.08;92984.53;5095257;28;20184;-79
2022/04/02 03:38:18;;;;;;;1.20;1.10;;;;;;;14.82;49.81;92987.09;5096261;28;20186;-82
2022/04/02 03:40:46;;;;;;;1.17;1.13;;;;;;;14.79;49.76;92976.19;5095689;28;20272;-80
2022/04/02 03:43:12;;;;;;;1.70;1.07;;;;;;;14.78;49.49;92974.63;5095272;28;20277;-79
2022/04/02 03:45:39;;;;;;;0.93;0.93;;;;;;;14.82;49.44;92985.31;5094431;28;20655;-85
2022/04/02 03:48:07;;;;;;;1.77;1.00;;;;;;;14.80;49.31;92976.97;5095055;28;20247;-82
2022/04/02 03:50:34;;;;;;;1.00;1.00;;;;;;;14.77;49.16;92975.63;5093901;28;20718;-85
2022/04/02 03:53:01;;;;;;;1.20;1.10;;;;;;;14.74;49.10;92962.38;5094382;28;20228;-77
2022/04/02 03:55:29;;;;;;;0.90;0.90;;;;;;;14.82;48.96;92987.88;5095150;28;20177;-88
2022/04/02 03:57:56;;;;;;;1.20;1.10;;;;;;;14.83;48.93;92974.00;5095347;28;20272;-77
2022/04/02 04:00:24;;;;;;;1.10;1.10;;;;;;;14.84;48.44;92990.25;5099467;28;20684;-78
2022/04/02 04:02:51;;;;;;;1.10;1.10;;;;;;;14.85;48.56;92997.75;5094681;28;20210;-77
2022/04/02 04:05:19;;;;;;;1.23;1.17;;;;;;;14.87;48.33;92994.97;5092969;28;20193;-78
2022/04/02 04:07:45;;;;;;;1.20;1.20;;;;;;;14.88;48.45;93017.94;5094314;28;20181;-86
2022/04/02 04:10:12;;;;;;;3.23;1.20;;;;;;;14.90;48.42;93013.38;5094631;28;20225;-83
2022/04/02 04:12:41;;;;;;;3.53;1.20;;;;;;;14.87;48.18;93002.69;5097317;28;20189;-83
2022/04/02 04:15:08;;;;;;;1.10;1.10;;;;;;;14.92;48.30;93026.81;5113645;28;20200;-82
2022/04/02 04:17:38;;;;;;;1.20;1.20;;;;;;;14.78;47.74;93009.88;5122076;28;20178;-87
2022/04/02 04:20:07;;;;;;;1.00;1.00;;;;;;;14.95;47.91;93035.94;5098040;28;20714;-82
2022/04/02 04:22:33;;;;;;;1.10;1.07;;;;;;;14.87;47.88;93031.00;5093893;28;20182;-82
2022/04/02 04:25:00;;;;;;;1.03;1.03;;;;;;;15.00;47.86;93033.53;5098066;28;20174;-85
2022/04/02 04:27:27;;;;;;;1.20;1.10;;;;;;;15.03;47.73;93038.28;5114645;28;20192;-84
2022/04/02 04:29:56;;;;;;;1.07;1.07;;;;;;;15.05;47.74;93052.50;5112844;28;20181;-81
2022/04/02 04:32:23;;;;;;;1.20;1.10;;;;;;;15.00;47.51;93036.09;5106824;28;20196;-80
2022/04/02 04:34:50;;;;;;;1.87;1.07;;;;;;;15.09;47.57;93052.09;5116428;28;20211;-82
2022/04/02 04:37:16;;;;;;;2.10;1.00;;;;;;;15.06;47.43;93037.84;5113217;28;20185;-90
2022/04/02 04:39:43;;;;;;;0.93;0.93;;;;;;;15.11;47.25;93029.50;5112852;28;20687;-79
2022/04/02 04:42:10;;;;;;;1.10;1.10;;;;;;;15.24;47.23;93061.13;5111937;28;20186;-75
2022/04/02 04:44:39;;;;;;;0.90;0.90;;;;;;;15.21;47.01;93050.47;5111189;28;20181;-82
2022/04/02 04:47:08;;;;;;;1.10;1.10;;;;;;;15.34;46.96;93075.34;5107369;28;20275;-83
2022/04/02 04:49:35;;;;;;;1.10;0.90;;;;;;;15.36;46.81;93068.97;5091560;28;20200;-79
2022/04/02 04:52:01;;;;;;;1.30;1.20;;;;;;;15.34;46.85;93059.91;5092796;28;20206;-81
2022/04/02 04:54:28;;;;;;;1.10;1.00;;;;;;;15.40;46.79;93064.22;5091390;28;20293;-81
2022/04/02 04:56:55;;;;;;;2.53;1.10;;;;;;;15.49;46.58;93081.78;5092161;28;20624;-86
2022/04/02 04:59:22;;;;;;;1.43;1.43;;;;;;;15.47;46.33;93067.53;5092203;28;20199;-79
2022/04/02 05:01:49;;;;;;;1.07;1.00;;;;;;;15.66;46.42;93086.47;5096936;28;20194;-85
2022/04/02 05:04:17;;;;;;;1.47;1.37;;;;;;;15.80;46.25;93083.63;5092087;28;20193;-79
2022/04/02 05:06:44;;;;;;;1.20;1.10;;;;;;;16.04;45.63;93071.72;5094386;28;20182;-78
2022/04/02 05:09:11;;;;;;;1.43;1.00;;;;;;;16.20;45.75;93065.25;5112488;28;20185;-83
2022/04/02 05:11:38;;;;;;;1.30;1.23;;;;;;;16.77;45.25;93085.78;5114149;28;20216;-85
2022/04/02 05:14:05;;;;;;;1.07;1.03;;;;;;;17.25;45.07;93098.72;5112255;28;20212;-81
2022/04/02 05:16:32;;;;;;;2.13;1.10;;;;;;;17.72;44.79;93092.97;5071655;28;20259;-80
2022/04/02 05:19:00;;;;;;;1.30;1.20;;;;;;;18.02;44.52;93098.13;5071684;28;20571;-89
2022/04/02 05:21:28;;;;;;;1.17;1.10;;;;;;;18.29;44.15;93104.44;5073368;28;20187;-87
2022/04/02 05:23:55;;;;;;;1.03;1.03;;;;;;;18.49;43.57;93091.19;5072276;28;20198;-78
2022/04/02 05:26:21;;;;;;;0.90;0.90;;;;;;;18.59;43.15;93103.56;5071962;28;20186;-76
2022/04/02 05:28:48;;;;;;;1.47;0.90;;;;;;;18.83;42.57;93124.31;5071285;28;20194;-75
2022/04/02 05:31:15;;;;;;;2.27;1.57;;;;;;;19.02;42.43;93118.75;5090062;28;20569;-78
2022/04/02 05:33:42;;;;;;;1.27;1.10;;;;;;;19.27;41.09;93123.66;5090867;28;20197;-73
2022/04/02 05:36:09;;;;;;;1.23;1.23;;;;;;;19.68;40.56;93136.63;5098533;28;20228;-80
2022/04/02 05:38:37;;;;;;;2.33;1.13;;;;;;;20.12;40.05;93108.31;5114876;28;20198;-77
2022/04/02 05:41:04;;;;;;;1.63;1.17;;;;;;;20.45;39.62;93089.38;5113477;28;20189;-82
2022/04/02 05:43:31;;;;;;;2.10;1.13;;;;;;;20.68;39.51;93102.22;5111395;28;20196;-76
2022/04/02 05:45:58;;;;;;;1.00;1.00;;;;;;;20.83;39.07;93113.84;5072573;28;20187;-84
2022/04/02 05:48:25;;;;;;;1.20;1.10;;;;;;;20.86;38.49;93098.56;5091340;28;20190;-78
2022/04/02 05:50:52;;;;;;;1.53;1.20;;;;;;;20.89;38.22;93069.47;5090402;28;20217;-80
2022/04/02 05:53:18;;;;;;;1.90;1.10;;;;;;;20.84;37.79;93087.59;5090687;28;20684;-82
2022/04/02 05:55:48;;;;;;;1.03;1.00;;;;;;;20.80;37.63;93092.50;5090423;28;20194;-73
2022/04/02 05:58:15;;;;;;;2.93;1.20;;;;;;;20.74;37.51;93103.06;5100727;28;20246;-76
2022/04/02 06:00:42;;;;;;;1.20;1.00;;;;;;;20.87;56.41;93100.13;5110593;28;20192;-75
2022/04/02 06:03:09;;;;;;;1.13;1.00;;;;;;;21.03;57.84;93094.09;5110627;28;20239;-80
2022/04/02 06:05:37;;;;;;;2.10;1.20;;;;;;;21.20;56.98;93101.84;5110609;28;20705;-75
2022/04/02 06:08:04;;;;;;;2.97;1.47;;;;;;;21.34;56.35;93107.50;5108355;28;20185;-87
2022/04/02 06:10:30;;;;;;;2.13;0.90;;;;;;;21.47;53.23;93116.75;5090360;28;20192;-81
2022/04/02 06:12:59;;;;;;;1.50;1.00;;;;;;;21.52;52.83;93114.97;5100328;28;20192;-77
2022/04/02 06:15:26;;;;;;;2.40;1.30;;;;;;;21.62;52.46;93122.09;5110617;28;20189;-78
2022/04/02 06:17:53;;;;;;;2.20;1.23;;;;;;;21.69;50.70;93124.53;5110046;28;20675;-79
2022/04/02 06:20:20;;;;;;;1.27;1.20;;;;;;;21.73;49.70;93128.22;5108896;28;20197;-78
2022/04/02 06:22:47;;;;;;;1.50;1.08;;;;;;;21.78;48.91;93121.22;5110516;28;20185;-79
2022/04/02 06:25:13;;;;;;;1.58;1.27;;;;;;;21.93;46.97;93128.38;5110181;28;20255;-82
2022/04/02 06:27:42;;;;;;;1.20;1.20;;;;;;;22.27;44.69;93118.56;5101696;28;20201;-76
2022/04/02 06:30:12;;;;;;;1.25;1.15;;;;;;;22.62;44.14;93132.91;5085360;28;20186;-79
2022/04/02 06:32:39;;;;;;;1.20;1.10;;;;;;;22.69;44.65;93112.63;5080954;28;20266;-81
2022/04/02 06:35:07;;;;;;;2.17;1.20;;;;;;;22.81;43.73;93111.66;5093909;28;20580;-83
2022/04/02 06:37:35;;;;;;;1.20;1.10;;;;;;;23.31;41.64;93129.41;5098192;28;20202;-80
2022/04/02 06:40:03;;;;;;;1.45;1.45;;;;;;;23.92;40.24;93134.06;5090208;28;20217;-79
2022/04/02 06:42:29;;;;;;;1.20;1.10;;;;;;;24.46;39.54;93141.50;5094530;28;20174;-81
2022/04/02 06:44:56;;;;;;;1.85;1.27;;;;;;;25.02;38.09;93149.28;5094255;28;20682;-82
2022/04/02 06:47:29;;;;;;;1.83;1.10;;;;;;;25.56;36.62;93130.31;5090272;28;20193;-84
2022/04/02 06:49:56;;;;;;;87.32;5.53;;;;;;;26.02;36.87;93140.56;5089576;28;20572;-82
2022/04/02 06:52:23;;;;;;;1.95;1.55;;;;;;;26.46;36.07;93151.03;5090100;28;20228;-77
2022/04/02 06:54:50;;;;;;;2.33;1.35;;;;;;;26.87;34.01;93158.59;5090543;28;20205;-80
2022/04/02 06:57:20;;;;;;;0.98;0.98;;;;;;;27.27;32.17;93149.56;5090102;28;20659;-78
2022/04/02 06:59:48;;;;;;;26.42;3.90;;;;;;;27.66;33.43;93190.63;5110583;28;20955;-77
2022/04/02 07:02:16;;;;;;;2.33;1.45;;;;;;;28.07;31.49;93173.63;5114457;28;20193;-77
2022/04/02 07:04:44;;;;;;;18.50;1.92;;;;;;;28.32;31.55;93183.75;5103326;28;20731;-76
2022/04/02 07:07:11;;;;;;;5.65;1.20;;;;;;;28.50;30.59;93166.47;5094734;28;20205;-75
2022/04/02 07:09:37;;;;;;;5.20;1.60;;;;;;;28.70;29.25;93179.28;5093371;28;20641;-76
2022/04/02 07:12:05;;;;;;;7.15;1.75;;;;;;;28.91;30.98;93176.31;5093425;28;20225;-76
2022/04/02 07:14:33;;;;;;;7.45;1.60;;;;;;;29.14;31.93;93195.69;5093508;28;20200;-73
2022/04/02 07:16:59;;;;;;;8.60;1.45;;;;;;;29.31;30.90;93190.66;5093727;28;20177;-74
2022/04/02 07:19:28;;;;;;;2.92;1.00;;;;;;;29.46;31.48;93181.72;5092931;28;20202;-74
2022/04/02 07:21:56;;;;;;;6.60;1.33;;;;;;;29.62;31.89;93193.56;5093162;28;20610;-74
2022/04/02 07:24:24;;;;;;;5.28;1.23;;;;;;;29.74;31.92;93183.28;5093369;28;20474;-71
2022/04/02 07:26:54;;;;;;;6.03;1.50;;;;;;;29.93;29.88;93199.00;5093216;28;20190;-73
2022/04/02 07:29:21;;;;;;;1.98;1.00;;;;;;;30.04;30.86;93202.19;5093246;28;20193;-71
2022/04/02 07:31:48;;;;;;;3.03;1.30;;;;;;;30.16;29.13;93212.28;5092805;28;20225;-71
2022/04/02 07:34:15;;;;;;;7.10;1.20;;;;;;;30.19;29.18;93217.75;5092905;28;20557;-74
2022/04/02 07:36:56;;;;;;;6.90;1.40;;;;;;;30.28;28.92;93202.00;5092597;28;20198;-74
2022/04/02 07:39:33;;;;;;;4.13;1.30;;;;;;;30.32;28.22;93196.94;5093268;28;20185;-72
2022/04/02 07:42:05;;;;;;;3.03;1.27;;;;;;;30.37;28.26;93194.16;5092547;28;20193;-73
2022/04/02 07:44:37;;;;;;;3.05;1.30;;;;;;;30.41;29.12;93200.41;5092872;28;20186;-72
2022/04/02 07:47:06;;;;;;;3.97;1.20;;;;;;;30.48;28.57;93230.59;5092811;28;20661;-74
2022/04/02 07:49:39;;;;;;;3.53;1.60;;;;;;;30.41;27.97;93176.66;5092400;28;20724;-75
2022/04/02 07:52:06;;;;;;;3.42;1.23;;;;;;;30.54;28.39;93194.31;5092408;28;20721;-74
2022/04/02 07:54:39;;;;;;;4.22;1.55;;;;;;;30.64;28.86;93201.97;5092400;28;20197;-72
2022/04/02 07:57:09;;;;;;;4.57;1.70;;;;;;;30.80;29.19;93197.16;5092935;28;20235;-74
2022/04/02 07:59:47;;;;;;;2.13;1.35;;;;;;;31.12;28.08;93203.25;5093006;28;20189;-76
2022/04/02 08:05:02;;;;;;;2.30;1.10;;;;;;;32.00;25.96;93203.38;5092520;28;20290;-74
2022/04/02 08:07:30;;;;;;;3.08;1.40;;;;;;;32.42;25.05;93193.19;5091269;28;20197;-74
2022/04/02 08:10:00;;;;;;;3.47;1.58;;;;;;;32.75;25.08;93187.44;5092247;28;20216;-74
2022/04/02 08:12:27;;;;;;;1.48;1.10;;;;;;;33.06;24.39;93192.53;5092489;28;20221;-73
2022/04/02 08:14:54;;;;;;;2.03;1.10;;;;;;;33.30;24.18;93195.47;5092293;28;20205;-76
2022/04/02 08:17:22;;;;;;;1.23;1.13;;;;;;;33.55;23.65;93201.00;5092244;28;20193;-75
2022/04/02 08:19:50;;;;;;;2.63;1.00;;;;;;;33.77;23.03;93219.34;5091833;28;20193;-75
2022/04/02 08:22:17;;;;;;;0.98;0.90;;;;;;;33.89;23.06;93200.84;5092243;28;20193;-74
2022/04/02 08:24:44;;;;;;;1.85;1.17;;;;;;;34.07;22.79;93203.44;5092297;28;20189;-74
2022/04/02 08:27:22;;;;;;;2.65;1.05;;;;;;;34.19;22.72;93199.00;5092186;28;20193;-74
2022/04/02 08:29:57;;;;;;;0.90;0.90;;;;;;;34.30;22.22;93180.06;5091803;28;20189;-74
2022/04/02 08:32:33;;;;;;;1.58;1.05;;;;;;;34.40;22.43;93179.66;5092327;28;20646;-74
2022/04/02 08:35:06;;;;;;;4.22;0.90;;;;;;;34.42;22.21;93186.22;5092073;28;20227;-74
2022/04/02 08:37:50;;;;;;;1.25;1.13;;;;;;;34.48;22.13;93183.38;5091867;28;20676;-74
2022/04/02 08:40:37;;;;;;;1.20;1.10;;;;;;;34.52;22.34;93177.09;5091943;28;20182;-74
2022/04/02 08:43:34;;;;;;;1.05;0.77;;;;;;;34.53;22.12;93213.16;5091911;28;20189;-74
2022/04/02 08:46:12;;;;;;;1.73;1.25;;;;;;;34.44;21.75;93199.16;5092148;28;20178;-75
2022/04/02 08:48:55;;;;;;;1.10;1.00;;;;;;;34.33;21.67;93217.34;5091670;28;20185;-74
2022/04/02 08:51:40;;;;;;;2.03;1.25;;;;;;;34.11;22.05;93221.06;5091400;28;20193;-74
2022/04/02 08:54:23;;;;;;;0.93;0.93;;;;;;;33.91;22.05;93222.53;5091440;28;20585;-74
2022/04/02 08:56:56;;;;;;;1.85;1.13;;;;;;;33.78;21.73;93220.88;5091358;28;20614;-74
2022/04/02 08:59:35;;;;;;;1.48;1.38;;;;;;;33.69;21.94;93238.72;5091438;28;20629;-74
2022/04/02 09:02:28;;;;;;;2.42;1.40;;;;;;;33.58;22.02;93242.78;5091088;28;20197;-73
2022/04/02 09:05:29;;;;;;;3.05;1.05;;;;;;;33.42;22.07;93221.28;5091156;28;20572;-75
2022/04/02 09:08:27;;;;;;;1.17;1.08;;;;;;;33.26;21.86;93207.78;5008977;28;20232;-74
2022/04/02 09:11:21;;;;;;;1.80;1.08;;;;;;;33.06;22.18;93200.50;5009005;28;20294;-73
2022/04/02 09:14:09;;;;;;;2.75;1.15;;;;;;;32.83;22.27;93184.00;5008621;28;20224;-76
2022/04/02 09:16:55;;;;;;;3.78;1.48;;;;;;;32.65;22.26;93199.13;5008699;28;20189;-74
2022/04/02 09:19:31;;;;;;;1.30;1.20;;;;;;;32.42;22.41;93198.47;5008328;28;20287;-75
2022/04/02 09:22:09;;;;;;;2.00;1.35;;;;;;;32.18;22.80;93199.69;5008768;28;20715;-73
2022/04/02 09:25:11;;;;;;;1.25;1.10;;;;;;;31.91;22.99;93189.34;5008779;28;20189;-74
2022/04/02 09:28:00;;;;;;;1.20;1.10;;;;;;;31.64;22.81;93200.91;4931107;29;20202;-75
2022/04/02 09:30:46;;;;;;;5.20;1.27;;;;;;;31.34;22.96;93200.59;4931145;29;20258;-74
2022/04/02 09:33:39;;;;;;;3.30;1.10;;;;;;;31.12;23.02;93211.97;4931094;29;20227;-74
2022/04/02 09:36:24;;;;;;;1.85;1.20;;;;;;;30.88;23.58;93209.66;4931118;29;20685;-77
2022/04/02 09:39:06;;;;;;;2.40;1.55;;;;;;;30.52;23.18;93193.03;4930985;29;20706;-76
2022/04/02 09:41:48;;;;;;;1.65;1.35;;;;;;;30.22;23.48;93198.72;4931345;29;20187;-76
2022/04/02 09:44:53;;;;;;;1.85;1.00;;;;;;;29.96;23.79;93227.41;4942776;28;20201;-75
2022/04/02 09:47:25;;;;;;;3.47;1.10;;;;;;;29.70;23.81;93221.06;4969433;28;20197;-74
2022/04/02 09:50:08;;;;;;;1.13;1.02;;;;;;;29.43;24.13;93234.97;4969517;28;20189;-74
2022/04/02 09:52:38;;;;;;;2.75;1.00;;;;;;;29.24;24.07;93246.34;4969241;28;20237;-76
2022/04/02 09:55:11;;;;;;;3.63;1.33;;;;;;;29.07;24.23;93221.66;4969234;28;20190;-75
2022/04/02 09:58:05;;;;;;;1.05;0.95;;;;;;;28.86;24.65;93237.72;4969221;28;20221;-77
2022/04/02 10:00:42;;;;;;;1.13;1.10;;;;;;;28.57;24.57;93224.72;4966355;28;20194;-77
2022/04/02 10:03:13;;;;;;;0.95;0.95;;;;;;;28.41;25.06;93228.63;4969089;28;20208;-74
2022/04/02 10:06:07;;;;;;;1.33;1.10;;;;;;;28.20;24.98;93225.50;5076931;28;20189;-74
2022/04/02 10:08:39;;;;;;;1.30;1.20;;;;;;;28.03;25.57;93225.19;5089924;28;20194;-74
2022/04/02 10:11:08;;;;;;;1.88;1.10;;;;;;;27.89;25.31;93217.19;5090059;28;20198;-75
2022/04/02 10:13:36;;;;;;;1.40;1.10;;;;;;;27.75;25.62;93201.31;5089745;28;20217;-77
2022/04/02 10:16:05;;;;;;;1.48;1.30;;;;;;;27.62;25.70;93234.28;5090209;28;20255;-74
2022/04/02 10:18:36;;;;;;;2.08;1.20;;;;;;;27.47;25.96;93218.69;5090403;28;20281;-75
2022/04/02 10:21:06;;;;;;;2.38;1.10;;;;;;;27.30;25.72;93228.84;5090147;28;20190;-75
2022/04/02 10:23:36;;;;;;;1.10;1.00;;;;;;;27.20;26.03;93225.25;5089904;28;20637;-76
2022/04/02 10:26:15;;;;;;;1.63;1.20;;;;;;;27.10;26.02;93224.53;5090398;28;20637;-74
2022/04/02 10:28:49;;;;;;;1.02;1.02;;;;;;;26.96;25.51;93187.63;5089965;28;20665;-74
2022/04/02 10:31:26;;;;;;;1.40;1.15;;;;;;;26.94;25.94;93213.34;5089344;28;20730;-75
2022/04/02 10:33:57;;;;;;;0.90;0.90;;;;;;;26.89;25.46;93214.19;5090011;28;20212;-75
2022/04/02 10:36:27;;;;;;;1.35;1.25;;;;;;;26.84;25.71;93201.09;5089769;28;20630;-75
2022/04/02 10:38:54;;;;;;;1.23;1.17;;;;;;;26.71;25.92;93181.53;5089635;28;20189;-75
2022/04/02 10:41:24;;;;;;;2.30;1.13;;;;;;;26.56;25.83;93173.81;5090145;28;20208;-74
2022/04/02 10:43:58;;;;;;;1.70;1.30;;;;;;;26.47;25.67;93178.06;5090074;28;20193;-74
2022/04/02 10:46:26;;;;;;;1.10;1.10;;;;;;;26.39;26.20;93182.00;5090067;28;20197;-74
2022/04/02 10:48:57;;;;;;;1.88;1.40;;;;;;;26.25;26.27;93174.00;5089514;28;20201;-77
2022/04/02 10:51:31;;;;;;;1.33;1.23;;;;;;;26.01;26.36;93176.47;5089992;28;20190;-75
2022/04/02 10:54:03;;;;;;;1.00;0.95;;;;;;;25.88;26.59;93173.66;5089180;28;20233;-76
2022/04/02 10:56:35;;;;;;;1.30;1.20;;;;;;;25.85;26.55;93161.88;5089697;28;20182;-76
2022/04/02 10:59:02;;;;;;;3.63;1.50;;;;;;;25.77;26.74;93180.78;5089694;28;20273;-74
2022/04/02 11:01:31;;;;;;;1.27;1.20;;;;;;;25.65;26.82;93173.22;5089385;28;20285;-74
2022/04/02 11:03:58;;;;;;;1.30;1.20;;;;;;;25.50;26.50;93179.28;5089506;28;20194;-75
2022/04/02 11:06:48;;;;;;;2.97;1.30;;;;;;;25.42;26.63;93171.19;5089822;28;20204;-74
2022/04/02 11:09:30;;;;;;;1.40;1.30;;;;;;;25.31;26.99;93159.19;5007335;28;20701;-76
2022/04/02 11:11:59;;;;;;;1.95;1.30;;;;;;;25.32;26.91;93166.78;5007324;28;20663;-74
2022/04/02 11:14:26;;;;;;;3.53;1.50;;;;;;;25.28;26.87;93145.59;5007503;28;20192;-74
2022/04/02 11:16:53;;;;;;;1.13;1.02;;;;;;;25.25;26.93;93174.88;5007596;28;20191;-74
2022/04/02 11:22:08;;;;;;;1.40;1.30;;;;;;;25.02;26.84;93205.00;5007322;28;20183;-75
2022/04/02 11:24:48;;;;;;;4.85;1.67;;;;;;;24.82;26.89;93222.53;5007419;28;20687;-74
2022/04/02 11:27:18;;;;;;;1.52;1.42;;;;;;;24.55;26.71;93220.16;5007296;28;20195;-76
2022/04/02 11:29:50;;;;;;;1.33;1.23;;;;;;;24.27;27.74;93251.72;5007491;28;20224;-75
2022/04/02 11:32:25;;;;;;;1.42;1.30;;;;;;;23.88;28.71;93253.94;5006738;28;20259;-76
2022/04/02 11:34:53;;;;;;;2.95;1.30;;;;;;;23.66;29.61;93308.91;5007325;28;20212;-76
2022/04/02 11:37:28;;;;;;;2.75;1.73;;;;;;;23.31;31.65;93306.78;5006869;28;20199;-75
2022/04/02 11:40:02;;;;;;;2.10;1.50;;;;;;;22.98;33.46;93297.44;5007260;28;20682;-74
2022/04/02 11:42:34;;;;;;;2.67;1.45;;;;;;;22.62;34.41;93278.03;5008472;28;20206;-74
2022/04/02 11:45:06;;;;;;;1.75;1.33;;;;;;;22.35;35.28;93273.63;5010878;28;20200;-75
2022/04/02 11:47:38;;;;;;;5.53;1.27;;;;;;;22.19;35.94;93254.47;5092529;28;20200;-75
2022/04/02 11:50:07;;;;;;;2.50;1.48;;;;;;;22.13;36.63;93284.06;5092693;28;20205;-75
2022/04/02 11:52:52;;;;;;;1.63;1.38;;;;;;;21.98;37.63;93307.28;5092391;28;20228;-74
2022/04/02 11:55:19;;;;;;;2.35;1.40;;;;;;;21.78;38.27;93326.03;5092988;28;20182;-74
2022/04/02 11:58:01;;;;;;;1.70;1.20;;;;;;;21.52;38.96;93353.50;5092882;28;20186;-75